Time;durP1;ratioP1;P1;durP2;ratioP2;P2;SDS_P1;SDS_P2;PMS_P1;PMS_P2;Temp;Humidity;BMP_temperature;BMP_pressure;BME280_temperature;BME280_humidity;BME280_pressure;Samples;Min_cycle;Max_cycle;Signal;HPM_P1;HPM_P2
2021/08/04 00:00:57;;;;;;;2.10;1.48;;;;;;;;;;5051892;28;20052;-42
2021/08/04 00:03:23;;;;;;;3.58;1.55;;;;;;;;;;5052218;28;20036;-42
2021/08/04 00:05:48;;;;;;;5.47;1.45;;;;;;;;;;5051948;28;20105;-42
2021/08/04 00:08:13;;;;;;;5.80;1.50;;;;;;;;;;5051955;28;20029;-41
2021/08/04 00:10:41;;;;;;;3.72;1.00;;;;;;;;;;5052123;28;20021;-42
2021/08/04 00:13:07;;;;;;;5.38;1.30;;;;;;;;;;5050705;28;20029;-42
2021/08/04 00:15:32;;;;;;;5.47;1.73;;;;;;;;;;5052186;28;20021;-41
2021/08/04 00:17:58;;;;;;;3.08;1.45;;;;;;;;;;5051914;28;20051;-42
2021/08/04 00:20:23;;;;;;;2.15;1.17;;;;;;;;;;5050562;28;20017;-42
2021/08/04 00:22:49;;;;;;;3.58;1.60;;;;;;;;;;5051600;28;20048;-42
2021/08/04 00:25:14;;;;;;;1.55;1.20;;;;;;;;;;5051809;28;20487;-42
2021/08/04 00:27:39;;;;;;;3.33;1.30;;;;;;;;;;5051642;28;20033;-42
2021/08/04 00:30:05;;;;;;;3.75;1.50;;;;;;;;;;5051795;28;20017;-42
2021/08/04 00:32:31;;;;;;;1.70;0.90;;;;;;;;;;5051807;28;20384;-42
2021/08/04 00:34:57;;;;;;;1.67;1.00;;;;;;;;;;5050446;28;20471;-42
2021/08/04 00:37:23;;;;;;;1.60;0.70;;;;;;;;;;5050439;28;20039;-42
2021/08/04 00:39:48;;;;;;;1.70;0.90;;;;;;;;;;5050510;28;20043;-42
2021/08/04 00:42:18;;;;;;;9.02;1.10;;;;;;;;;;5051149;28;20106;-42
2021/08/04 00:44:43;;;;;;;2.08;1.33;;;;;;;;;;5055380;28;20036;-42
2021/08/04 00:47:09;;;;;;;1.67;1.45;;;;;;;;;;5054245;28;20499;-42
2021/08/04 00:49:34;;;;;;;1.67;1.08;;;;;;;;;;5055496;28;20123;-43
2021/08/04 00:52:00;;;;;;;2.08;1.15;;;;;;;;;;5054002;28;20040;-42
2021/08/04 00:54:26;;;;;;;1.55;1.23;;;;;;;;;;5053979;28;20017;-42
2021/08/04 00:56:51;;;;;;;3.17;1.50;;;;;;;;;;5053763;28;20025;-42
2021/08/04 00:59:17;;;;;;;2.15;1.58;;;;;;;;;;5053876;28;20060;-42
2021/08/04 01:01:42;;;;;;;1.23;1.13;;;;;;;;;;5053623;28;20178;-42
2021/08/04 01:04:09;;;;;;;2.80;1.63;;;;;;;;;;5053587;28;20029;-42
2021/08/04 01:06:47;;;;;;;3.42;2.08;;;;;;;;;;5053592;28;20487;-42
2021/08/04 01:09:14;;;;;;;4.43;1.42;;;;;;;;;;5053608;28;20039;-42
2021/08/04 01:11:45;;;;;;;5.07;1.50;;;;;;;;;;5053430;28;20463;-42
2021/08/04 01:14:15;;;;;;;3.17;1.40;;;;;;;;;;5054848;28;20025;-42
2021/08/04 01:16:43;;;;;;;1.65;1.48;;;;;;;;;;5053408;28;20040;-42
2021/08/04 01:19:21;;;;;;;3.83;1.60;;;;;;;;;;5053417;28;20033;-42
2021/08/04 01:21:48;;;;;;;1.30;1.20;;;;;;;;;;5053143;28;20442;-42
2021/08/04 01:24:19;;;;;;;2.10;1.90;;;;;;;;;;5053360;28;20037;-42
2021/08/04 01:26:46;;;;;;;7.32;2.45;;;;;;;;;;5053192;28;20029;-42
2021/08/04 01:29:13;;;;;;;2.80;2.03;;;;;;;;;;5053278;28;20369;-42
2021/08/04 01:31:39;;;;;;;8.23;2.80;;;;;;;;;;5054534;28;20032;-42
2021/08/04 01:34:05;;;;;;;3.25;2.28;;;;;;;;;;5054422;28;20021;-42
2021/08/04 01:36:32;;;;;;;3.17;1.95;;;;;;;;;;5053113;28;20021;-42
2021/08/04 01:38:58;;;;;;;3.40;2.40;;;;;;;;;;5052931;28;20025;-42
2021/08/04 01:41:26;;;;;;;2.38;1.63;;;;;;;;;;5054161;28;20029;-41
2021/08/04 01:43:53;;;;;;;2.97;1.70;;;;;;;;;;5052710;28;20064;-41
2021/08/04 01:46:19;;;;;;;3.30;1.77;;;;;;;;;;5054151;28;20047;-42
2021/08/04 01:48:44;;;;;;;1.33;1.20;;;;;;;;;;5052757;28;20054;-42
2021/08/04 01:51:11;;;;;;;1.88;1.30;;;;;;;;;;5054089;28;20063;-42
2021/08/04 01:53:36;;;;;;;2.58;1.42;;;;;;;;;;5052310;28;20068;-42
2021/08/04 01:56:03;;;;;;;3.88;1.70;;;;;;;;;;5054333;28;20492;-42
2021/08/04 01:58:28;;;;;;;2.00;1.52;;;;;;;;;;5053965;28;20107;-42
2021/08/04 02:00:54;;;;;;;4.10;2.40;;;;;;;;;;5052512;28;20112;-42
2021/08/04 02:03:19;;;;;;;3.05;1.25;;;;;;;;;;5054070;28;20163;-41
2021/08/04 02:05:45;;;;;;;2.33;1.33;;;;;;;;;;5053798;28;20367;-42
2021/08/04 02:08:13;;;;;;;1.95;1.13;;;;;;;;;;5053777;28;20095;-41
2021/08/04 02:10:54;;;;;;;2.97;1.63;;;;;;;;;;5053655;28;20017;-42
2021/08/04 02:13:26;;;;;;;1.33;1.23;;;;;;;;;;5035882;28;20029;-42
2021/08/04 02:15:54;;;;;;;3.17;1.52;;;;;;;;;;5053528;28;20488;-42
2021/08/04 02:18:24;;;;;;;4.35;1.40;;;;;;;;;;5035798;28;20029;-41
2021/08/04 02:20:50;;;;;;;2.30;1.50;;;;;;;;;;5053391;28;20028;-42
2021/08/04 02:23:20;;;;;;;3.45;1.10;;;;;;;;;;5053207;28;20049;-42
2021/08/04 02:25:46;;;;;;;1.42;1.20;;;;;;;;;;5052166;28;20079;-42
2021/08/04 02:28:13;;;;;;;1.75;1.30;;;;;;;;;;5053639;28;20024;-41
2021/08/04 02:30:39;;;;;;;2.17;1.50;;;;;;;;;;5053252;28;20472;-42
2021/08/04 02:33:05;;;;;;;3.58;1.50;;;;;;;;;;5052897;28;20415;-42
2021/08/04 02:35:31;;;;;;;0.93;0.93;;;;;;;;;;5051994;28;20467;-42
2021/08/04 02:37:56;;;;;;;3.30;1.85;;;;;;;;;;5051937;28;20382;-42
2021/08/04 02:40:22;;;;;;;1.35;1.25;;;;;;;;;;5051849;28;20510;-42
2021/08/04 02:42:48;;;;;;;6.20;1.20;;;;;;;;;;5051686;28;20471;-41
2021/08/04 02:45:14;;;;;;;2.28;0.90;;;;;;;;;;5053092;28;20032;-42
2021/08/04 02:47:39;;;;;;;1.42;0.98;;;;;;;;;;5051740;28;20021;-41
2021/08/04 02:50:06;;;;;;;3.38;1.00;;;;;;;;;;5051721;28;20040;-41
2021/08/04 02:52:35;;;;;;;1.27;0.95;;;;;;;;;;5052890;28;20029;-42
2021/08/04 02:55:01;;;;;;;1.40;1.00;;;;;;;;;;5052865;28;20490;-43
2021/08/04 02:57:26;;;;;;;1.80;0.77;;;;;;;;;;5052857;28;20021;-43
2021/08/04 02:59:51;;;;;;;3.28;1.10;;;;;;;;;;5052967;28;20039;-43
2021/08/04 03:02:17;;;;;;;1.95;1.00;;;;;;;;;;5035041;28;20017;-42
2021/08/04 03:04:42;;;;;;;1.92;0.98;;;;;;;;;;5051923;28;20067;-42
2021/08/04 03:07:08;;;;;;;1.10;1.00;;;;;;;;;;5052666;28;20048;-42
2021/08/04 03:09:34;;;;;;;1.67;1.25;;;;;;;;;;5051467;28;20028;-42
2021/08/04 03:11:59;;;;;;;1.55;1.45;;;;;;;;;;5051233;28;20009;-42
2021/08/04 03:14:25;;;;;;;1.10;1.00;;;;;;;;;;5052693;28;20503;-42
2021/08/04 03:16:50;;;;;;;1.38;0.80;;;;;;;;;;5051212;28;20045;-42
2021/08/04 03:19:16;;;;;;;1.00;0.90;;;;;;;;;;5052464;28;20025;-42
2021/08/04 03:21:42;;;;;;;2.58;1.30;;;;;;;;;;5052260;28;20063;-42
2021/08/04 03:24:08;;;;;;;2.10;1.13;;;;;;;;;;5052480;28;20033;-42
2021/08/04 03:26:34;;;;;;;1.20;1.00;;;;;;;;;;5051454;28;20122;-42
2021/08/04 03:29:00;;;;;;;1.00;0.75;;;;;;;;;;5051414;28;20025;-42
2021/08/04 03:31:25;;;;;;;2.60;1.08;;;;;;;;;;5052417;28;20508;-41
2021/08/04 03:33:51;;;;;;;1.63;0.95;;;;;;;;;;5052532;28;20025;-42
2021/08/04 03:36:16;;;;;;;1.42;0.98;;;;;;;;;;5052597;28;20047;-44
2021/08/04 03:38:41;;;;;;;1.90;0.85;;;;;;;;;;5052496;28;20056;-42
2021/08/04 03:41:07;;;;;;;0.95;0.75;;;;;;;;;;5052140;28;20468;-42
2021/08/04 03:43:33;;;;;;;3.38;1.10;;;;;;;;;;5052401;28;20041;-42
2021/08/04 03:45:58;;;;;;;3.28;0.80;;;;;;;;;;5052466;28;20464;-41
2021/08/04 03:48:23;;;;;;;2.35;0.80;;;;;;;;;;5052186;28;20029;-42
2021/08/04 03:50:49;;;;;;;1.30;0.90;;;;;;;;;;5052367;28;20013;-43
2021/08/04 03:53:14;;;;;;;0.93;0.70;;;;;;;;;;5052170;28;20025;-42
2021/08/04 03:55:39;;;;;;;2.80;0.98;;;;;;;;;;5052031;28;20025;-42
2021/08/04 03:58:05;;;;;;;1.65;0.90;;;;;;;;;;5052394;28;20025;-42
2021/08/04 04:00:30;;;;;;;1.10;0.73;;;;;;;;;;5052366;28;20021;-42
2021/08/04 04:02:55;;;;;;;1.83;1.27;;;;;;;;;;5050708;28;20486;-42
2021/08/04 04:05:21;;;;;;;1.45;0.90;;;;;;;;;;5052314;28;20024;-42
2021/08/04 04:07:46;;;;;;;1.08;0.77;;;;;;;;;;5051976;28;20524;-44
2021/08/04 04:10:11;;;;;;;2.20;1.05;;;;;;;;;;5051917;28;20099;-42
2021/08/04 04:12:37;;;;;;;1.80;0.93;;;;;;;;;;5051995;28;20124;-42
2021/08/04 04:15:06;;;;;;;1.38;0.90;;;;;;;;;;5052153;28;20014;-43
2021/08/04 04:17:31;;;;;;;3.90;1.25;;;;;;;;;;5055088;28;20029;-42
2021/08/04 04:19:57;;;;;;;1.67;1.00;;;;;;;;;;5056010;28;20031;-42
2021/08/04 04:22:22;;;;;;;1.23;0.90;;;;;;;;;;5055681;28;20044;-42
2021/08/04 04:24:48;;;;;;;1.00;0.90;;;;;;;;;;5055623;28;20457;-43
2021/08/04 04:27:13;;;;;;;1.08;0.98;;;;;;;;;;5055692;28;20063;-43
2021/08/04 04:29:39;;;;;;;2.97;0.90;;;;;;;;;;5055473;28;20066;-42
2021/08/04 04:32:23;;;;;;;4.72;1.42;;;;;;;;;;5055884;28;20025;-42
2021/08/04 04:34:48;;;;;;;1.83;1.08;;;;;;;;;;5055791;28;20387;-43
2021/08/04 04:37:13;;;;;;;0.88;0.75;;;;;;;;;;5055471;28;20023;-43
2021/08/04 04:39:39;;;;;;;1.48;0.93;;;;;;;;;;5055560;28;20033;-42
2021/08/04 04:42:04;;;;;;;2.00;0.90;;;;;;;;;;5055554;28;20013;-42
2021/08/04 04:44:30;;;;;;;1.08;0.70;;;;;;;;;;5055212;28;20079;-42
2021/08/04 04:46:55;;;;;;;4.03;0.80;;;;;;;;;;5055349;28;20093;-42
2021/08/04 04:49:20;;;;;;;1.05;0.80;;;;;;;;;;5055565;28;20135;-42
2021/08/04 04:51:46;;;;;;;1.20;0.88;;;;;;;;;;5055046;28;20459;-42
2021/08/04 04:54:11;;;;;;;2.38;0.80;;;;;;;;;;5055203;28;20041;-42
2021/08/04 04:56:37;;;;;;;0.80;0.80;;;;;;;;;;5055238;28;20062;-42
2021/08/04 04:59:02;;;;;;;1.73;0.90;;;;;;;;;;5055007;28;20475;-42
2021/08/04 05:01:27;;;;;;;0.93;0.82;;;;;;;;;;5055162;28;20100;-42
2021/08/04 05:03:53;;;;;;;1.73;0.80;;;;;;;;;;5055098;28;20083;-42
2021/08/04 05:06:18;;;;;;;3.15;0.80;;;;;;;;;;5054995;28;20060;-42
2021/08/04 05:08:44;;;;;;;0.68;0.68;;;;;;;;;;5054843;28;20037;-42
2021/08/04 05:11:09;;;;;;;7.75;1.00;;;;;;;;;;5054891;28;20024;-42
2021/08/04 05:13:38;;;;;;;1.42;0.70;;;;;;;;;;5054814;28;20128;-42
2021/08/04 05:16:04;;;;;;;0.73;0.63;;;;;;;;;;5055038;28;20013;-42
2021/08/04 05:18:29;;;;;;;1.40;0.68;;;;;;;;;;5054794;28;20396;-43
2021/08/04 05:20:54;;;;;;;0.80;0.60;;;;;;;;;;5054778;28;20025;-42
2021/08/04 05:23:20;;;;;;;1.25;1.02;;;;;;;;;;5054468;28;20047;-43
2021/08/04 05:25:45;;;;;;;1.33;0.60;;;;;;;;;;5054834;28;20033;-42
2021/08/04 05:28:11;;;;;;;1.35;0.95;;;;;;;;;;5053756;28;20036;-42
2021/08/04 05:30:36;;;;;;;0.50;0.50;;;;;;;;;;5054498;28;20013;-42
2021/08/04 05:33:01;;;;;;;0.80;0.80;;;;;;;;;;5054340;28;20077;-42
2021/08/04 05:35:27;;;;;;;3.35;0.77;;;;;;;;;;5054407;28;20023;-42
2021/08/04 05:37:52;;;;;;;2.65;1.45;;;;;;;;;;5054334;28;20033;-42
2021/08/04 05:40:17;;;;;;;0.88;0.70;;;;;;;;;;5054299;28;20021;-42
2021/08/04 05:42:43;;;;;;;0.95;0.57;;;;;;;;;;5054172;28;20108;-42
2021/08/04 05:45:08;;;;;;;1.92;0.73;;;;;;;;;;5054441;28;20078;-42
2021/08/04 05:47:34;;;;;;;2.10;0.43;;;;;;;;;;5054209;28;20103;-42
2021/08/04 05:49:59;;;;;;;1.98;0.70;;;;;;;;;;5053106;28;20024;-42
2021/08/04 05:52:25;;;;;;;2.53;0.90;;;;;;;;;;5054336;28;20482;-43
2021/08/04 05:54:51;;;;;;;1.58;1.10;;;;;;;;;;5054243;28;20028;-42
2021/08/04 05:57:16;;;;;;;1.50;1.00;;;;;;;;;;5054030;28;20110;-42
2021/08/04 05:59:42;;;;;;;1.33;0.70;;;;;;;;;;5053987;28;20495;-42
2021/08/04 06:02:07;;;;;;;3.00;0.95;;;;;;;;;;5053881;28;20060;-42
2021/08/04 06:04:33;;;;;;;0.93;0.68;;;;;;;;;;5053861;28;20111;-42
2021/08/04 06:06:58;;;;;;;0.88;0.60;;;;;;;;;;5054060;28;20035;-42
2021/08/04 06:09:23;;;;;;;0.50;0.50;;;;;;;;;;5053828;28;20021;-42
2021/08/04 06:11:49;;;;;;;2.80;0.70;;;;;;;;;;5053963;28;20057;-42
2021/08/04 06:14:14;;;;;;;2.28;1.00;;;;;;;;;;5054064;28;20376;-42
2021/08/04 06:16:40;;;;;;;1.40;0.77;;;;;;;;;;5053873;28;20021;-42
2021/08/04 06:19:05;;;;;;;2.95;0.70;;;;;;;;;;5053581;28;20079;-43
2021/08/04 06:21:30;;;;;;;1.05;0.88;;;;;;;;;;5053608;28;20041;-42
2021/08/04 06:23:56;;;;;;;1.02;0.82;;;;;;;;;;5053650;28;20047;-43
2021/08/04 06:26:21;;;;;;;1.20;0.70;;;;;;;;;;5053475;28;20084;-42
2021/08/04 06:28:49;;;;;;;0.82;0.60;;;;;;;;;;5053626;28;20025;-42
2021/08/04 06:31:14;;;;;;;1.75;0.75;;;;;;;;;;5053225;28;20025;-42
2021/08/04 06:33:39;;;;;;;1.25;0.70;;;;;;;;;;5053803;28;20081;-42
2021/08/04 06:36:05;;;;;;;0.70;0.50;;;;;;;;;;5053369;28;20387;-42
2021/08/04 06:38:30;;;;;;;0.80;0.55;;;;;;;;;;5053256;28;20444;-42
2021/08/04 06:40:56;;;;;;;1.95;0.95;;;;;;;;;;5052058;28;20032;-43
2021/08/04 06:43:22;;;;;;;1.67;0.70;;;;;;;;;;5053072;28;20039;-42
2021/08/04 06:45:48;;;;;;;1.88;1.00;;;;;;;;;;5052912;28;20114;-42
2021/08/04 06:48:13;;;;;;;1.75;1.13;;;;;;;;;;5053379;28;20048;-42
2021/08/04 06:50:39;;;;;;;1.45;0.82;;;;;;;;;;5052884;28;20047;-43
2021/08/04 06:53:04;;;;;;;1.25;0.73;;;;;;;;;;5053117;28;20013;-42
2021/08/04 06:55:30;;;;;;;1.58;0.63;;;;;;;;;;5053131;28;20115;-42
2021/08/04 06:57:55;;;;;;;1.52;0.60;;;;;;;;;;5052822;28;20023;-42
2021/08/04 07:00:20;;;;;;;5.55;0.82;;;;;;;;;;5053093;28;20040;-42
2021/08/04 07:02:48;;;;;;;1.75;0.85;;;;;;;;;;5052687;28;20456;-42
2021/08/04 07:05:13;;;;;;;0.80;0.70;;;;;;;;;;5052984;28;20090;-42
2021/08/04 07:07:40;;;;;;;1.58;0.77;;;;;;;;;;5052739;28;20021;-42
2021/08/04 07:10:05;;;;;;;0.75;0.60;;;;;;;;;;5051461;28;20032;-42
2021/08/04 07:12:31;;;;;;;2.70;0.70;;;;;;;;;;5052666;28;20021;-43
2021/08/04 07:14:56;;;;;;;1.08;0.98;;;;;;;;;;5052559;28;20032;-43
2021/08/04 07:17:21;;;;;;;0.75;0.55;;;;;;;;;;5052516;28;20020;-42
2021/08/04 07:19:47;;;;;;;2.10;0.90;;;;;;;;;;5052487;28;20033;-42
2021/08/04 07:22:12;;;;;;;2.33;0.68;;;;;;;;;;5052174;28;20052;-42
2021/08/04 07:24:38;;;;;;;1.73;0.98;;;;;;;;;;5052444;28;20044;-42
2021/08/04 07:27:03;;;;;;;1.13;0.80;;;;;;;;;;5052643;28;20014;-42
2021/08/04 07:29:29;;;;;;;1.42;1.05;;;;;;;;;;5052569;28;20029;-42
2021/08/04 07:31:54;;;;;;;1.13;0.90;;;;;;;;;;5052555;28;20013;-42
2021/08/04 07:34:24;;;;;;;2.33;1.30;;;;;;;;;;5052401;28;20029;-42
2021/08/04 07:36:50;;;;;;;1.65;0.88;;;;;;;;;;5052570;28;20416;-42
2021/08/04 07:39:16;;;;;;;1.27;0.93;;;;;;;;;;5052544;28;20087;-43
2021/08/04 07:41:41;;;;;;;1.05;0.75;;;;;;;;;;5052170;28;20266;-42
2021/08/04 07:44:06;;;;;;;3.50;0.95;;;;;;;;;;5052498;28;20036;-42
2021/08/04 07:46:32;;;;;;;0.77;0.65;;;;;;;;;;5052276;28;20025;-42
2021/08/04 07:48:57;;;;;;;1.42;1.10;;;;;;;;;;5052097;28;20483;-42
2021/08/04 07:51:23;;;;;;;2.33;1.10;;;;;;;;;;5053172;28;20023;-42
2021/08/04 07:53:48;;;;;;;1.65;1.08;;;;;;;;;;5056326;28;20029;-42
2021/08/04 07:56:19;;;;;;;1.42;0.95;;;;;;;;;;5056244;28;20127;-42
2021/08/04 07:58:45;;;;;;;1.20;0.88;;;;;;;;;;5056429;28;20029;-42
2021/08/04 08:01:10;;;;;;;1.10;0.93;;;;;;;;;;5056473;28;20024;-42
2021/08/04 08:03:35;;;;;;;0.93;0.80;;;;;;;;;;5056289;28;20163;-42
2021/08/04 08:06:01;;;;;;;2.28;1.10;;;;;;;;;;5056062;28;20100;-42
2021/08/04 08:08:27;;;;;;;4.57;1.10;;;;;;;;;;5056379;28;20379;-42
2021/08/04 08:10:52;;;;;;;1.55;1.00;;;;;;;;;;5054895;28;20032;-42
2021/08/04 08:13:19;;;;;;;1.98;1.05;;;;;;;;;;5056020;28;20033;-43
2021/08/04 08:15:45;;;;;;;2.42;1.33;;;;;;;;;;5055863;28;20020;-43
2021/08/04 08:18:11;;;;;;;3.03;1.08;;;;;;;;;;5056130;28;20021;-42
2021/08/04 08:20:37;;;;;;;4.57;1.05;;;;;;;;;;5056133;28;20074;-42
2021/08/04 08:23:03;;;;;;;3.13;1.20;;;;;;;;;;5055480;28;20048;-42
2021/08/04 08:25:28;;;;;;;2.30;1.15;;;;;;;;;;5055728;28;20036;-42
2021/08/04 08:27:54;;;;;;;1.90;1.05;;;;;;;;;;5055711;28;20558;-43
2021/08/04 08:30:19;;;;;;;1.27;0.88;;;;;;;;;;5054318;28;20387;-42
2021/08/04 08:32:48;;;;;;;1.70;1.00;;;;;;;;;;5055510;28;20109;-42
2021/08/04 08:35:14;;;;;;;2.22;1.27;;;;;;;;;;5055605;28;20024;-42
2021/08/04 08:37:40;;;;;;;2.92;1.08;;;;;;;;;;5055843;28;20119;-42
2021/08/04 08:40:06;;;;;;;1.35;0.95;;;;;;;;;;5055301;28;20101;-42
2021/08/04 08:42:31;;;;;;;0.93;0.68;;;;;;;;;;5055671;28;20033;-43
2021/08/04 08:44:57;;;;;;;6.63;1.23;;;;;;;;;;5055342;28;20029;-42
2021/08/04 08:47:23;;;;;;;1.42;0.80;;;;;;;;;;5053964;28;20361;-42
2021/08/04 08:49:48;;;;;;;2.35;1.10;;;;;;;;;;5055281;28;20021;-43
2021/08/04 08:52:14;;;;;;;2.13;0.73;;;;;;;;;;5055313;28;20111;-42
2021/08/04 08:54:39;;;;;;;1.10;0.95;;;;;;;;;;5055219;28;20025;-43
2021/08/04 08:57:05;;;;;;;0.73;0.68;;;;;;;;;;5053957;28;20477;-42
2021/08/04 08:59:30;;;;;;;1.40;1.02;;;;;;;;;;5055016;28;20017;-42
2021/08/04 09:01:56;;;;;;;1.00;0.57;;;;;;;;;;5054995;28;20028;-42
2021/08/04 09:04:21;;;;;;;2.53;1.00;;;;;;;;;;5053940;28;20033;-43
2021/08/04 09:06:51;;;;;;;0.85;0.70;;;;;;;;;;5054900;28;20056;-42
2021/08/04 09:09:22;;;;;;;1.00;0.90;;;;;;;;;;5054894;28;20013;-42
2021/08/04 09:11:52;;;;;;;2.47;1.20;;;;;;;;;;5054980;28;20029;-43
2021/08/04 09:14:25;;;;;;;2.45;1.05;;;;;;;;;;5055135;28;20037;-42
2021/08/04 09:17:16;;;;;;;1.25;1.15;;;;;;;;;;5054771;28;20025;-42
2021/08/04 09:19:43;;;;;;;4.63;1.00;;;;;;;;;;5053611;28;20059;-41
2021/08/04 09:22:13;;;;;;;0.70;0.70;;;;;;;;;;5054618;28;20132;-42
2021/08/04 09:24:57;;;;;;;2.85;1.08;;;;;;;;;;5054929;28;20129;-43
2021/08/04 09:27:39;;;;;;;2.88;0.95;;;;;;;;;;5054500;28;20043;-41
2021/08/04 09:30:04;;;;;;;1.30;0.73;;;;;;;;;;5054338;28;20044;-42
2021/08/04 09:32:31;;;;;;;1.35;1.15;;;;;;;;;;5054534;28;20017;-42
2021/08/04 09:34:57;;;;;;;1.00;0.65;;;;;;;;;;5054360;28;20494;-43
2021/08/04 09:37:22;;;;;;;1.60;1.05;;;;;;;;;;5054626;28;20021;-42
2021/08/04 09:39:57;;;;;;;1.05;0.98;;;;;;;;;;5054304;28;20098;-42
2021/08/04 09:42:38;;;;;;;1.63;1.17;;;;;;;;;;5054262;28;20082;-42
2021/08/04 09:45:04;;;;;;;1.30;0.90;;;;;;;;;;5054236;28;20037;-42
2021/08/04 09:47:30;;;;;;;1.92;0.98;;;;;;;;;;5052983;28;20040;-42
2021/08/04 09:49:57;;;;;;;0.95;0.70;;;;;;;;;;5054110;28;20080;-42
2021/08/04 09:52:23;;;;;;;1.42;0.70;;;;;;;;;;5054112;28;20113;-42
2021/08/04 09:54:48;;;;;;;1.30;0.73;;;;;;;;;;5054342;28;20108;-42
2021/08/04 09:57:14;;;;;;;1.45;0.90;;;;;;;;;;5054104;28;20341;-42
2021/08/04 09:59:40;;;;;;;1.75;0.70;;;;;;;;;;5054288;28;20025;-42
2021/08/04 10:02:25;;;;;;;2.05;1.25;;;;;;;;;;5053886;28;20016;-42
2021/08/04 10:05:11;;;;;;;2.10;1.15;;;;;;;;;;5053704;28;20503;-43
2021/08/04 10:07:56;;;;;;;1.23;0.70;;;;;;;;;;5053867;28;20029;-42
2021/08/04 10:10:21;;;;;;;1.02;0.88;;;;;;;;;;5053740;28;20082;-42
2021/08/04 10:12:47;;;;;;;3.03;1.02;;;;;;;;;;5053917;28;20017;-42
2021/08/04 10:15:12;;;;;;;0.80;0.73;;;;;;;;;;5052691;28;20117;-42
2021/08/04 10:17:38;;;;;;;4.20;1.00;;;;;;;;;;5053729;28;20499;-43
2021/08/04 10:20:03;;;;;;;2.00;1.05;;;;;;;;;;5053424;28;20036;-42
2021/08/04 10:22:29;;;;;;;1.17;1.08;;;;;;;;;;5053324;28;20045;-42
2021/08/04 10:24:54;;;;;;;3.25;1.20;;;;;;;;;;5053724;28;20064;-43
2021/08/04 10:27:19;;;;;;;2.75;0.90;;;;;;;;;;5053516;28;20471;-42
2021/08/04 10:29:45;;;;;;;3.22;0.90;;;;;;;;;;5053337;28;20365;-42
2021/08/04 10:32:11;;;;;;;1.00;0.85;;;;;;;;;;5053199;28;20059;-42
2021/08/04 10:34:36;;;;;;;1.23;1.08;;;;;;;;;;5053308;28;20036;-43
2021/08/04 10:37:02;;;;;;;1.38;1.05;;;;;;;;;;5053202;28;20016;-42
2021/08/04 10:39:28;;;;;;;1.65;1.20;;;;;;;;;;5053162;28;20060;-42
2021/08/04 10:42:03;;;;;;;2.50;1.10;;;;;;;;;;5053073;28;20040;-42
2021/08/04 10:44:28;;;;;;;2.28;1.05;;;;;;;;;;5053085;28;20037;-42
2021/08/04 10:46:54;;;;;;;1.27;0.70;;;;;;;;;;5052975;28;20025;-42
2021/08/04 10:49:21;;;;;;;1.83;0.93;;;;;;;;;;5052973;28;20037;-42
2021/08/04 10:51:59;;;;;;;1.65;0.88;;;;;;;;;;5052964;28;20017;-42
2021/08/04 10:54:24;;;;;;;1.77;0.82;;;;;;;;;;5052942;28;20029;-42
2021/08/04 10:56:50;;;;;;;2.90;1.02;;;;;;;;;;5052934;28;20524;-42
2021/08/04 10:59:31;;;;;;;2.08;1.30;;;;;;;;;;5052830;28;20037;-42
2021/08/04 11:02:02;;;;;;;1.58;1.10;;;;;;;;;;5052743;28;20029;-43
2021/08/04 11:04:28;;;;;;;1.27;1.17;;;;;;;;;;5052406;28;20048;-42
2021/08/04 11:07:08;;;;;;;1.33;1.13;;;;;;;;;;5052562;28;20375;-43
2021/08/04 11:09:53;;;;;;;3.70;0.80;;;;;;;;;;5052748;28;20107;-42
2021/08/04 11:12:19;;;;;;;2.03;1.10;;;;;;;;;;5052551;28;20064;-42
2021/08/04 11:14:49;;;;;;;1.02;0.93;;;;;;;;;;5052693;28;20053;-43
2021/08/04 11:17:19;;;;;;;1.83;0.93;;;;;;;;;;5052685;28;20072;-43
2021/08/04 11:20:02;;;;;;;2.03;1.52;;;;;;;;;;5052737;28;20032;-42
2021/08/04 11:22:31;;;;;;;5.20;1.02;;;;;;;;;;5052468;28;20395;-43
2021/08/04 11:25:33;;;;;;;1.00;0.77;;;;;;;;;;5052374;28;20040;-42
2021/08/04 11:27:58;;;;;;;5.10;0.90;;;;;;;;;;5029949;28;20071;-42
2021/08/04 11:30:30;;;;;;;1.63;1.00;;;;;;;;;;5047852;28;20044;-43
2021/08/04 11:33:14;;;;;;;1.23;1.10;;;;;;;;;;5051867;28;20028;-42
2021/08/04 11:35:40;;;;;;;2.85;1.42;;;;;;;;;;5052514;28;20021;-41
2021/08/04 11:38:06;;;;;;;2.65;1.10;;;;;;;;;;5052614;28;20143;-42
2021/08/04 11:40:31;;;;;;;0.80;0.73;;;;;;;;;;5052432;28;20484;-46
2021/08/04 11:42:57;;;;;;;9.43;1.17;;;;;;;;;;5051640;28;20100;-42
2021/08/04 11:45:22;;;;;;;2.38;1.30;;;;;;;;;;5052384;28;20037;-43
2021/08/04 11:47:51;;;;;;;2.47;1.13;;;;;;;;;;5052592;28;20090;-42
2021/08/04 11:50:16;;;;;;;3.85;1.20;;;;;;;;;;5052398;28;20475;-43
2021/08/04 11:52:42;;;;;;;1.10;0.90;;;;;;;;;;5052212;28;20083;-43
2021/08/04 11:55:11;;;;;;;0.63;0.60;;;;;;;;;;5052583;28;20033;-42
2021/08/04 11:57:46;;;;;;;4.03;1.15;;;;;;;;;;5052305;28;20048;-43
2021/08/04 12:00:19;;;;;;;3.28;1.10;;;;;;;;;;5050998;28;20051;-42
2021/08/04 12:02:45;;;;;;;7.60;1.17;;;;;;;;;;5052253;28;20033;-43
2021/08/04 12:05:15;;;;;;;1.80;0.95;;;;;;;;;;5052109;28;20033;-43
2021/08/04 12:07:44;;;;;;;1.63;1.08;;;;;;;;;;5052190;28;20051;-43
2021/08/04 12:10:10;;;;;;;2.05;1.05;;;;;;;;;;5052244;28;20428;-43
2021/08/04 12:12:42;;;;;;;1.90;0.93;;;;;;;;;;5050910;28;20075;-43
2021/08/04 12:15:19;;;;;;;2.53;1.13;;;;;;;;;;5052388;28;20468;-42
2021/08/04 12:17:44;;;;;;;3.63;1.00;;;;;;;;;;5052491;28;20060;-43
2021/08/04 12:20:21;;;;;;;1.77;1.27;;;;;;;;;;5052262;28;20059;-42
2021/08/04 12:22:56;;;;;;;1.20;1.10;;;;;;;;;;5051904;28;20112;-43
2021/08/04 12:25:21;;;;;;;4.68;1.00;;;;;;;;;;5051958;28;20091;-44
2021/08/04 12:27:48;;;;;;;1.52;1.10;;;;;;;;;;5052223;28;20017;-43
2021/08/04 12:30:23;;;;;;;1.90;1.30;;;;;;;;;;5051963;28;20518;-42
2021/08/04 12:33:12;;;;;;;2.45;1.58;;;;;;;;;;5052232;28;20442;-42
2021/08/04 12:35:48;;;;;;;1.75;1.10;;;;;;;;;;5051953;28;20022;-43
2021/08/04 12:38:15;;;;;;;1.75;1.05;;;;;;;;;;5054594;28;20068;-42
2021/08/04 12:40:42;;;;;;;1.17;1.05;;;;;;;;;;5055554;28;20024;-41
2021/08/04 12:43:08;;;;;;;3.20;1.00;;;;;;;;;;5055436;28;20082;-42
2021/08/04 12:45:33;;;;;;;3.45;1.25;;;;;;;;;;5054514;28;20374;-42
2021/08/04 12:48:00;;;;;;;1.42;1.25;;;;;;;;;;5055622;28;20067;-43
2021/08/04 12:50:30;;;;;;;2.28;1.50;;;;;;;;;;5055338;28;20112;-42
2021/08/04 12:52:56;;;;;;;3.80;1.08;;;;;;;;;;5055279;28;20108;-43
2021/08/04 12:55:23;;;;;;;4.75;1.40;;;;;;;;;;5055194;28;20470;-42
2021/08/04 12:58:02;;;;;;;4.07;1.08;;;;;;;;;;5055169;28;20079;-42
2021/08/04 13:00:29;;;;;;;12.18;1.35;;;;;;;;;;5055136;28;20439;-43
2021/08/04 13:02:55;;;;;;;1.67;1.13;;;;;;;;;;5055253;28;20017;-42
2021/08/04 13:05:20;;;;;;;5.65;2.45;;;;;;;;;;5055350;28;20476;-42
2021/08/04 13:07:46;;;;;;;3.33;1.10;;;;;;;;;;5054970;28;20463;-42
2021/08/04 13:10:14;;;;;;;2.42;0.98;;;;;;;;;;5054821;28;20040;-43
2021/08/04 13:12:40;;;;;;;1.85;0.73;;;;;;;;;;5055186;28;20020;-43
2021/08/04 13:15:11;;;;;;;2.35;1.00;;;;;;;;;;5054795;28;20838;-43
2021/08/04 13:17:39;;;;;;;1.90;1.05;;;;;;;;;;5054792;28;20033;-42
2021/08/04 13:20:18;;;;;;;3.50;1.02;;;;;;;;;;5054849;28;20021;-42
2021/08/04 13:22:48;;;;;;;6.53;1.25;;;;;;;;;;5054408;28;20045;-42
2021/08/04 13:25:13;;;;;;;2.00;1.20;;;;;;;;;;5054806;28;20303;-42
2021/08/04 13:27:39;;;;;;;3.00;1.00;;;;;;;;;;5054996;28;20112;-42
2021/08/04 13:30:14;;;;;;;5.22;1.17;;;;;;;;;;5054751;28;20020;-42
2021/08/04 13:32:39;;;;;;;3.35;1.48;;;;;;;;;;5054514;28;20029;-42
2021/08/04 13:35:05;;;;;;;3.45;1.17;;;;;;;;;;5054640;28;20017;-42
2021/08/04 13:37:30;;;;;;;1.70;1.27;;;;;;;;;;5054383;28;20028;-43
2021/08/04 13:39:55;;;;;;;3.15;1.60;;;;;;;;;;5054271;28;20112;-42
2021/08/04 13:42:22;;;;;;;6.65;1.20;;;;;;;;;;5054665;28;20064;-43
2021/08/04 13:44:47;;;;;;;17.10;2.10;;;;;;;;;;5054078;28;20039;-42
2021/08/04 13:47:12;;;;;;;2.33;1.20;;;;;;;;;;5054343;28;20033;-42
2021/08/04 13:49:38;;;;;;;5.00;1.30;;;;;;;;;;5053825;28;20016;-43
2021/08/04 13:52:03;;;;;;;2.15;1.40;;;;;;;;;;5054118;28;20104;-42
2021/08/04 13:54:29;;;;;;;2.47;1.58;;;;;;;;;;5054408;28;20020;-42
2021/08/04 13:56:55;;;;;;;1.70;1.00;;;;;;;;;;5054041;28;20100;-42
2021/08/04 13:59:20;;;;;;;2.97;1.30;;;;;;;;;;5054273;28;20028;-43
2021/08/04 14:01:45;;;;;;;4.13;1.55;;;;;;;;;;5054265;28;20025;-42
2021/08/04 14:04:11;;;;;;;4.47;1.25;;;;;;;;;;5054120;28;20040;-42
2021/08/04 14:06:36;;;;;;;2.50;1.20;;;;;;;;;;5053777;28;20025;-42
2021/08/04 14:09:01;;;;;;;2.05;1.40;;;;;;;;;;5053828;28;20032;-42
2021/08/04 14:11:27;;;;;;;6.07;1.42;;;;;;;;;;5054130;28;20025;-42
2021/08/04 14:13:52;;;;;;;3.03;1.20;;;;;;;;;;5053654;28;20095;-42
2021/08/04 14:16:17;;;;;;;1.33;1.17;;;;;;;;;;5054057;28;20091;-43
2021/08/04 14:18:43;;;;;;;1.30;1.20;;;;;;;;;;5053888;28;20086;-42
2021/08/04 14:21:08;;;;;;;3.65;1.50;;;;;;;;;;5053768;28;20029;-41
2021/08/04 14:23:33;;;;;;;1.80;1.20;;;;;;;;;;5053398;28;20049;-43
2021/08/04 14:25:59;;;;;;;1.10;0.95;;;;;;;;;;5053270;28;20053;-41
2021/08/04 14:28:24;;;;;;;9.75;1.25;;;;;;;;;;5052136;28;20488;-42
2021/08/04 14:30:50;;;;;;;2.33;1.30;;;;;;;;;;5053388;28;20357;-42
2021/08/04 14:33:15;;;;;;;1.63;1.05;;;;;;;;;;5053380;28;20021;-42
2021/08/04 14:35:41;;;;;;;2.00;1.10;;;;;;;;;;5053514;28;20150;-42
2021/08/04 14:38:06;;;;;;;1.40;1.25;;;;;;;;;;5053506;28;20029;-42
2021/08/04 14:40:31;;;;;;;2.28;1.25;;;;;;;;;;5053193;28;20055;-41
2021/08/04 14:42:57;;;;;;;4.72;1.55;;;;;;;;;;5053098;28;20094;-42